Tiempo atmosférico en la estación meteorológica de Morales del Toro, Zamora (710 m.)



Fecha
DESCASC
Temp. máxima en grados centígrados (hora)
DESCASC
Temp. mínima en grados centígrados (hora)
DESCASC
Temp. media en grados centígrados
DESCASC
Racha de viento máxima en m/sg (hora)
DESCASC
Velocidad máxima media en intervalos de 10 minutos(hora)
DESCASC
Precipitaciones diarias en mm
DESCASC
Precipitaciones de 00:00 a 06:00 en mm
DESCASC
Precipitaciones de 06:00 a 12:00 en mm
DESCASC
Precipitaciones de 12:00 a 18:00 en mm
DESCASC
Precipitaciones de 18:00 a 24:00 en mm
DESCASC
22-08-2019 33.2 (19:00) 11.8 (07:40) 22.5 11.67 (00:10) 8.33 (00:10) 0 0 0 0 0
21-08-2019 31.5 (17:40) 12.5 (07:40) 22 10.56 (02:20) 7.78 (02:20) 0 0 0 0 0
20-08-2019 26.9 (18:30) 11.9 (07:50) 19.4 11.67 (21:00) 8.61 (00:30) 0 0 0 0 0
19-08-2019 26.2 (16:20) 14.7 (06:40) 20.5 11.39 (23:20) 8.33 (22:50) 0 0 0 0 0
18-08-2019 29.4 (16:50) 15.2 (00:00) 22.3 11.67 (16:00) 7.78 (17:20) 0 0 0 0 0
17-08-2019 34.8 (18:00) 12.6 (00:00) 23.7 10.28 (16:40) 6.94 (18:10) 0 0 0 0 0
16-08-2019 34.4 (18:00) 14.6 (00:00) 24.5 9.17 (18:20) 6.11 (20:10) 0 0 0 0 0
15-08-2019 34.2 (18:50) 14.5 (00:00) 24.4 8.89 (02:00) 6.39 (00:50) 0 0 0 0 0
14-08-2019 33.8 (19:20) 10 (00:00) 21.9 9.44 (23:50) 6.39 (23:50) 0 0 0 0 0
13-08-2019 28.5 (18:10) 8.4 (00:00) 18.4 11.39 (00:40) 7.78 (00:40) 0 0 0 0 0
12-08-2019 25.2 (17:20) 7.9 (00:00) 16.6 9.17 (23:50) 6.67 (23:50) 0 0 0 0 0
11-08-2019 25.1 (18:20) 12.6 (00:00) 18.9 11.94 (21:20) 8.61 (21:20) 1 1 0 0 0
10-08-2019 29 (17:50) 13.1 (00:00) 21.1 10.83 (17:10) 5.56 (20:50) 0 0 0 0 0
09-08-2019 27.4 (16:30) 16.7 (00:00) 22.1 14.17 (15:00) 10 (14:30) 0.6 0 0.6 0 0
08-08-2019 32 (16:40) 18.2 (00:00) 25.1 16.11 (18:10) 11.11 (18:30) 0 0 0 0 0
07-08-2019 28.5 (16:20) 15.6 (00:00) 22.1 10.83 (17:20) 8.06 (17:10) 0 0 0 0 0
06-08-2019 32.5 (16:30) 15.6 (00:00) 24.1 11.11 (21:00) 7.78 (21:20) 0 0 0 0 0
05-08-2019 33.7 (17:50) 14.6 (00:00) 24.2 9.72 (18:10) 6.11 (18:40) 0 0 0 0 0
04-08-2019 34.4 (16:30) 15.8 (00:00) 25.1 11.67 (17:40) 6.67 (18:40) 0 0 0 0 0
03-08-2019 35.9 (17:00) 15.5 (00:00) 25.7 9.17 (18:10) 6.11 (01:30) 0 0 0 0 0
02-08-2019 34.8 (19:10) 12.2 (00:00) 23.5 9.44 (00:40) 6.94 (01:40) 0 0 0 0 0
01-08-2019 32.3 (18:30) 12.8 (00:00) 22.5 9.17 (23:59) 6.94 (23:59) 0 0 0 0 0
31-07-2019 30.2 (16:30) 10.8 (00:00) 20.5 9.44 (00:20) 6.67 (00:20) 0 0 0 0 0
30-07-2019 27.8 (18:00) 8.4 (00:00) 18.1 8.61 (09:40) 6.11 (10:00) 0 0 0 0 0
29-07-2019 26.8 (17:10) 12.8 (00:00) 19.8 13.33 (16:50) 9.17 (17:40) 0 0 0 0 0
28-07-2019 29.3 (18:50) 8.7 (00:00) 19 7.22 (19:30) 4.72 (10:10) 0 0 0 0 0
27-07-2019 24.5 (16:20) 14.4 (00:00) 19.4 10.83 (16:00) 7.5 (22:40) 0.2 0 0 0.2 0
26-07-2019 27.8 (17:00) 15.4 (00:00) 21.6 12.78 (19:10) 8.61 (20:50) 0.2 0.2 0 0 0

Gráficas

Temp. máximas Temp. mínimas Temp. medias Precipitaciones Rachas de viento máximas Velocidades máximas media en intervalos de 10 minutos

Datos horarios

Fecha y hora oficial Temperatura (ºC) Velocidad del viento (km/h) Dirección del viento Racha (km/h) Dirección de racha Precipitación (mm) Presión (hPa) Tendencia (hPa) Humedad (%)
2019-08-24 23:00:00 25 9 Nordeste 12 Norte 0 -- -- 32
2019-08-24 22:00:00 27.5 4 Nordeste 9 Nordeste 0 -- -- 28
2019-08-24 21:00:00 29.9 8 Oeste 15 Oeste 0 -- -- 25
2019-08-24 20:00:00 33.6 11 Oeste 19 Oeste 0 -- -- 21
2019-08-24 19:00:00 34.6 7 Sur 26 Oeste 0 -- -- 21
2019-08-24 18:00:00 34.3 18 Sudoeste 28 Oeste 0 -- -- 21
2019-08-24 17:00:00 34.7 17 Oeste 32 Sudoeste 0 -- -- 20
2019-08-24 16:00:00 34.3 15 Sudoeste 27 Sudoeste 0 -- -- 21
2019-08-24 15:00:00 34.3 6 Sudoeste 17 Oeste 0 -- -- 20
2019-08-24 14:00:00 32.5 5 Oeste 13 Sudoeste 0 -- -- 22
2019-08-24 13:00:00 29.4 7 Oeste 13 Oeste 0 -- -- 24
2019-08-24 12:00:00 26.6 6 Oeste 11 Oeste 0 -- -- 29
2019-08-24 11:00:00 23.2 5 Sur 10 Sudoeste 0 -- -- 34
2019-08-24 10:00:00 20.6 4 Nordeste 9 Este 0 -- -- 39
2019-08-24 09:00:00 17.2 3 Sudoeste 8 Este 0 -- -- 45
2019-08-24 08:00:00 13.9 3 Sur 10 Sudeste 0 -- -- 52
2019-08-24 07:00:00 14.6 5 Este 10 Noroeste 0 -- -- 48
2019-08-24 06:00:00 15.4 8 Norte 12 Norte 0 -- -- 44
2019-08-24 05:00:00 14.6 10 Norte 17 Nordeste 0 -- -- 49
2019-08-24 04:00:00 18.8 9 Nordeste 12 Noroeste 0 -- -- 36
2019-08-24 03:00:00 18.1 7 Oeste 31 Oeste 0 -- -- 37
2019-08-24 02:00:00 17.4 11 Nordeste 23 Nordeste 0 -- -- 40
2019-08-24 01:00:00 19.2 9 Nordeste 14 Nordeste 0 -- -- 36
2019-08-24 00:00:00 19.6 12 Norte 13 Norte 0 -- -- 36
2019-08-23 23:00:00 21.8 10 Norte 15 Norte 0 -- -- 33
2019-08-23 22:00:00 24.9 8 Nordeste 10 Nordeste 0 -- -- 28
2019-08-23 21:00:00 29.8 4 Noroeste 16 Sudoeste 0 -- -- 21
2019-08-23 20:00:00 32.6 9 Oeste 25 Sudoeste 0 -- -- 19
2019-08-23 19:00:00 33.5 13 Oeste 28 Sudoeste 0 -- -- 18
2019-08-23 18:00:00 33.9 10 Oeste 21 Sudoeste 0 -- -- 19
2019-08-23 17:00:00 33.4 11 Oeste 27 Noroeste 0 -- -- 19
2019-08-23 16:00:00 33.5 13 Oeste 23 Noroeste 0 -- -- 19
2019-08-23 15:00:00 33 11 Noroeste 20 Noroeste 0 -- -- 19
2019-08-23 14:00:00 31.3 7 Sur 16 Sur 0 -- -- 21
2019-08-23 13:00:00 29 4 Nordeste 9 Nordeste 0 -- -- 25
2019-08-23 12:00:00 26.9 4 Sudeste 9 Este 0 -- -- 28
2019-08-23 11:00:00 23.2 3 Este 9 Nordeste 0 -- -- 36
2019-08-23 10:00:00 17.8 7 Nordeste 15 Nordeste 0 -- -- 46
2019-08-23 09:00:00 13.7 13 Norte 18 Norte 0 -- -- 57
2019-08-23 08:00:00 11.3 12 Norte 14 Norte 0 -- -- 63
2019-08-23 07:00:00 11.6 9 Norte 17 Norte 0 -- -- 61
2019-08-23 06:00:00 13 12 Norte 16 Nordeste 0 -- -- 53
2019-08-23 05:00:00 14.1 8 Norte 13 Norte 0 -- -- 46
2019-08-23 04:00:00 15.6 11 Norte 13 Nordeste 0 -- -- 42
2019-08-23 03:00:00 16.7 5 Sudeste 21 Nordeste 0 -- -- 37
2019-08-23 02:00:00 18 17 Nordeste 23 Nordeste 0 -- -- 35
2019-08-23 01:00:00 18.3 13 Nordeste 20 Nordeste 0 -- -- 30
2019-08-23 00:00:00 16 17 Nordeste 19 Nordeste 0 -- -- 29
2019-08-22 23:00:00 19.1 15 Norte 19 Norte 0 -- -- 23
2019-08-22 22:00:00 21.3 14 Norte 18 Norte 0 -- -- 21
2019-08-22 21:00:00 26.8 12 Norte 18 Norte 0 -- -- 15
2019-08-22 20:00:00 30.4 11 Norte 21 Norte 0 -- -- 15
2019-08-22 19:00:00 33.2 6 Nordeste 20 Nordeste 0 -- -- 15
2019-08-22 18:00:00 32.7 6 Nordeste 21 Nordeste 0 -- -- 15
2019-08-22 17:00:00 31.4 11 Nordeste 25 Este 0 -- -- 19
2019-08-22 16:00:00 31.9 13 Este 29 Este 0 -- -- 19
2019-08-22 15:00:00 30.7 15 Nordeste 26 Nordeste 0 -- -- 21
2019-08-22 14:00:00 30 11 Este 23 Este 0 -- -- 27
2019-08-22 13:00:00 27.5 8 Nordeste 25 Este 0 -- -- 35
2019-08-22 12:00:00 24.8 12 Nordeste 21 Este 0 -- -- 43
2019-08-22 11:00:00 21.8 12 Este 23 Este 0 -- -- 46
2019-08-22 10:00:00 18.2 15 Nordeste 24 Nordeste 0 -- -- 56
2019-08-22 09:00:00 14.9 7 Nordeste 12 Nordeste 0 -- -- 74
2019-08-22 08:00:00 12.4 8 Nordeste 16 Nordeste 0 -- -- 87
2019-08-22 07:00:00 12.2 10 Norte 14 Nordeste 0 -- -- 87
2019-08-22 06:00:00 13 3 Norte 13 Noroeste 0 -- -- 84
2019-08-22 05:00:00 14.4 7 Norte 24 Nordeste 0 -- -- 81
2019-08-22 04:00:00 15.9 9 Nordeste 18 Nordeste 0 -- -- 76
2019-08-22 03:00:00 16.9 13 Nordeste 23 Nordeste 0 -- -- 72
2019-08-22 02:00:00 18.4 15 Nordeste 30 Nordeste 0 -- -- 66
2019-08-22 01:00:00 20.1 26 Nordeste 42 Este 0 -- -- 60
2019-08-22 00:00:00 21.7 26 Este 37 Este 0 -- -- 51
2019-08-21 23:00:00 19.7 14 Nordeste 18 Nordeste 0 -- -- 53
2019-08-21 22:00:00 24 11 Nordeste 12 Nordeste 0 -- -- 43
2019-08-21 21:00:00 27.2 9 Norte 15 Norte 0 -- -- 36
2019-08-21 20:00:00 30.5 5 Norte 17 Oeste 0 -- -- 31
2019-08-21 19:00:00 30.6 8 Noroeste 19 Oeste 0 -- -- 32
2019-08-21 18:00:00 31.4 6 Oeste 18 Oeste 0 -- -- 32
2019-08-21 17:00:00 30.7 7 Este 21 Norte 0 -- -- 34
2019-08-21 16:00:00 29.4 7 Sudoeste 18 Oeste 0 -- -- 40
2019-08-21 15:00:00 27.6 6 Sur 16 Este 0 -- -- 44
2019-08-21 14:00:00 27.3 5 Sur 14 Sudeste 0 -- -- 45
2019-08-21 13:00:00 23.9 4 Norte 14 Norte 0 -- -- 51
2019-08-21 12:00:00 22.4 7 Nordeste 15 Nordeste 0 -- -- 53
2019-08-21 11:00:00 20.2 9 Nordeste 18 Nordeste 0 -- -- 57
2019-08-21 10:00:00 17.1 12 Nordeste 17 Nordeste 0 -- -- 67
2019-08-21 09:00:00 14.2 10 Nordeste 17 Nordeste 0 -- -- 76
2019-08-21 08:00:00 12.7 6 Nordeste 11 Norte 0 -- -- 81
2019-08-21 07:00:00 12.8 8 Este 13 Nordeste 0 -- -- 80
2019-08-21 06:00:00 14 7 Nordeste 25 Nordeste 0 -- -- 75
2019-08-21 05:00:00 14.5 17 Nordeste 26 Nordeste 0 -- -- 73
2019-08-21 04:00:00 14.9 13 Norte 19 Nordeste 0 -- -- 71
2019-08-21 03:00:00 15 17 Nordeste 38 Nordeste 0 -- -- 70
2019-08-21 02:00:00 15.5 25 Nordeste 33 Nordeste 0 -- -- 68
2019-08-21 01:00:00 16.2 24 Nordeste 37 Nordeste 0 -- -- 63
2019-08-21 00:00:00 17.2 27 Nordeste 37 Nordeste 0 -- -- 59
2019-08-20 23:00:00 17.7 20 Nordeste 38 Nordeste 0 -- -- 54
2019-08-20 22:00:00 19.2 27 Nordeste 42 Nordeste 0 -- -- 50
2019-08-20 21:00:00 21.2 27 Nordeste 42 Nordeste 0 -- -- 45
2019-08-20 20:00:00 24.2 30 Nordeste 37 Nordeste 0 -- -- 39
2019-08-20 19:00:00 26.4 18 Nordeste 35 Este 0 -- -- 31
2019-08-20 18:00:00 26.7 20 Nordeste 35 Nordeste 0 -- -- 33
2019-08-20 17:00:00 26.4 19 Nordeste 39 Nordeste 0 -- -- 35
2019-08-20 16:00:00 26 21 Nordeste 37 Este 0 -- -- 35
2019-08-20 15:00:00 25.2 22 Nordeste 38 Nordeste 0 -- -- 39
2019-08-20 14:00:00 24.4 23 Este 40 Este 0 -- -- 41
2019-08-20 13:00:00 22.8 25 Nordeste 40 Nordeste 0 -- -- 45
2019-08-20 12:00:00 21 21 Nordeste 33 Nordeste 0 -- -- 52
2019-08-20 11:00:00 19.2 23 Nordeste 37 Nordeste 0 -- -- 58
2019-08-20 10:00:00 17.3 24 Nordeste 37 Nordeste 0 -- -- 66
2019-08-20 09:00:00 15.1 19 Nordeste 27 Nordeste 0 -- -- 73
2019-08-20 08:00:00 12.3 3 Este 28 Nordeste 0 -- -- 83
2019-08-20 07:00:00 13.1 21 Nordeste 35 Nordeste 0 -- -- 81
2019-08-20 06:00:00 13.7 26 Nordeste 36 Nordeste 0 -- -- 79
2019-08-20 05:00:00 14.3 21 Nordeste 30 Nordeste 0 -- -- 78
2019-08-20 04:00:00 15 13 Norte 22 Nordeste 0 -- -- 74
2019-08-20 03:00:00 15.4 14 Nordeste 29 Nordeste 0 -- -- 72
2019-08-20 02:00:00 15.6 13 Nordeste 40 Nordeste 0 -- -- 70
2019-08-20 01:00:00 15.6 22 Nordeste 42 Nordeste 0 -- -- 71
2019-08-20 00:00:00 16.3 25 Nordeste 41 Nordeste 0 -- -- 68
2019-08-19 23:00:00 17.3 28 Nordeste 41 Nordeste 0 -- -- 66
2019-08-19 22:00:00 19.1 21 Nordeste 35 Nordeste 0 -- -- 60
2019-08-19 21:00:00 20.3 24 Nordeste 35 Nordeste 0 -- -- 55
2019-08-19 20:00:00 21.7 26 Nordeste 35 Nordeste 0 -- -- 50
2019-08-19 19:00:00 22.4 24 Nordeste 32 Nordeste 0 -- -- 50
2019-08-19 18:00:00 23.9 21 Nordeste 31 Nordeste 0 -- -- 46
2019-08-19 17:00:00 25.6 14 Nordeste 19 Nordeste 0 -- -- 42
2019-08-19 16:00:00 25.9 5 Norte 17 Nordeste 0 -- -- 39
2019-08-19 15:00:00 24.7 13 Nordeste 21 Nordeste 0 -- -- 42
2019-08-19 14:00:00 24.7 9 Nordeste 22 Nordeste 0 -- -- 44
2019-08-19 13:00:00 22.2 9 Norte 22 Norte 0 -- -- 52
2019-08-19 12:00:00 20.3 10 Nordeste 22 Nordeste 0 -- -- 57
2019-08-19 11:00:00 18.6 13 Nordeste 24 Nordeste 0 -- -- 63
2019-08-19 10:00:00 17.3 14 Nordeste 22 Nordeste 0 -- -- 67
2019-08-19 09:00:00 15.6 6 Nordeste 11 Norte 0 -- -- 76
2019-08-19 08:00:00 14.9 3 Nordeste 14 Nordeste 0 -- -- 79
2019-08-19 07:00:00 14.8 6 Norte 14 Nordeste 0 -- -- 79
2019-08-19 06:00:00 15.2 9 Norte 14 Norte 0 -- -- 77
2019-08-19 05:00:00 15.7 12 Nordeste 17 Nordeste 0 -- -- 76
2019-08-19 04:00:00 15.7 14 Nordeste 22 Nordeste 0 -- -- 77
2019-08-19 03:00:00 15.3 5 Nordeste 17 Nordeste 0 -- -- 78
2019-08-19 02:00:00 16.1 13 Norte 22 Nordeste 0 -- -- 75
2019-08-19 01:00:00 17.8 16 Norte 35 Norte 0 -- -- 68
2019-08-19 00:00:00 20 19 Norte 37 Norte 0 -- -- 56
2019-08-18 23:00:00 21.7 19 Noroeste 30 Noroeste 0 -- -- 49
2019-08-18 22:00:00 23.7 15 Oeste 24 Oeste 0 -- -- 48
2019-08-18 21:00:00 26.4 15 Oeste 27 Oeste 0 -- -- 43
2019-08-18 20:00:00 26.3 18 Oeste 28 Oeste 0 -- -- 45
2019-08-18 19:00:00 27.3 24 Oeste 35 Oeste 0 -- -- 44
2019-08-18 18:00:00 26.7 27 Oeste 40 Oeste 0 -- -- 48
2019-08-18 17:00:00 29.1 28 Oeste 41 Sudoeste 0 -- -- 43
2019-08-18 16:00:00 29 25 Oeste 42 Oeste 0 -- -- 42
2019-08-18 15:00:00 28.3 21 Oeste 35 Sudoeste 0 -- -- 45
2019-08-18 14:00:00 25.9 18 Oeste 28 Sudoeste 0 -- -- 51
2019-08-18 13:00:00 24 19 Sudoeste 32 Sudoeste 0 -- -- 53
2019-08-18 12:00:00 22.5 17 Sudoeste 32 Oeste 0 -- -- 56
2019-08-18 11:00:00 20.8 18 Oeste 27 Oeste 0 -- -- 63
2019-08-18 10:00:00 19.4 19 Sudoeste 25 Oeste 0 -- -- 68
2019-08-18 09:00:00 17.5 15 Sudoeste 19 Sudoeste 0 -- -- 75
2019-08-18 08:00:00 15.9 9 Oeste 15 Sudoeste 0 -- -- 75
2019-08-18 07:00:00 15.4 6 Oeste 17 Oeste 0 -- -- 70
2019-08-18 06:00:00 16.4 9 Sudoeste 15 Oeste 0 -- -- 64
2019-08-18 05:00:00 16.5 4 Sudoeste 11 Oeste 0 -- -- 63
2019-08-18 04:00:00 18.6 7 Oeste 11 Oeste 0 -- -- 57
2019-08-18 03:00:00 19.6 3 Sudoeste 12 Oeste 0 -- -- 53
2019-08-18 02:00:00 20.8 11 Oeste 19 Oeste 0 -- -- 48
2019-08-18 01:00:00 21.4 13 Oeste 16 Oeste 0 -- -- 41
2019-08-18 00:00:00 22.4 10 Oeste 12 Oeste 0 -- -- 33
2019-08-17 23:00:00 22.6 8 Noroeste 17 Oeste 0 -- -- 31
2019-08-17 22:00:00 26.3 12 Oeste 21 Oeste 0 -- -- 26
2019-08-17 21:00:00 30 15 Oeste 32 Oeste 0 -- -- 24
2019-08-17 20:00:00 32.9 21 Oeste 35 Sudoeste 0 -- -- 22
2019-08-17 19:00:00 34.2 23 Oeste 36 Sudoeste 0 -- -- 21
2019-08-17 18:00:00 34.8 20 Oeste 37 Sudoeste 0 -- -- 21
2019-08-17 17:00:00 34.2 13 Oeste 37 Oeste 0 -- -- 23
2019-08-17 16:00:00 33.9 19 Oeste 33 Oeste 0 -- -- 20
2019-08-17 15:00:00 32.7 14 Sudoeste 23 Sudoeste 0 -- -- 23
2019-08-17 14:00:00 30.5 14 Oeste 27 Sudoeste 0 -- -- 26
2019-08-17 13:00:00 28.3 10 Sudoeste 17 Sudoeste 0 -- -- 29
2019-08-17 12:00:00 25.8 8 Oeste 17 Oeste 0 -- -- 40
2019-08-17 11:00:00 23.6 10 Oeste 19 Oeste 0 -- -- 48
2019-08-17 10:00:00 20.6 7 Oeste 13 Oeste 0 -- -- 57
2019-08-17 09:00:00 17.3 4 Nordeste 10 Nordeste 0 -- -- 59
2019-08-17 08:00:00 14.5 6 Nordeste 11 Norte 0 -- -- 67
2019-08-17 07:00:00 13.8 4 Norte 7 Norte 0 -- -- 64
2019-08-17 06:00:00 15.8 3 Sudeste 7 Oeste 0 -- -- 57
2019-08-17 05:00:00 15.9 3 Oeste 11 Noroeste 0 -- -- 57
2019-08-17 04:00:00 17.6 11 Noroeste 14 Noroeste 0 -- -- 54
2019-08-17 03:00:00 17.1 12 Noroeste 13 Noroeste 0 -- -- 52
2019-08-17 02:00:00 18.9 4 Oeste 9 Noroeste 0 -- -- 43
2019-08-17 01:00:00 20.2 10 Noroeste 13 Noroeste 0 -- -- 39
2019-08-17 00:00:00 21 10 Noroeste 15 Oeste 0 -- -- 37
2019-08-16 23:00:00 24.2 12 Oeste 17 Oeste 0 -- -- 30
2019-08-16 22:00:00 25.9 13 Oeste 20 Oeste 0 -- -- 30
2019-08-16 21:00:00 29.9 18 Oeste 30 Oeste 0 -- -- 25
2019-08-16 20:00:00 33.1 21 Oeste 31 Oeste 0 -- -- 20
2019-08-16 19:00:00 34.1 20 Oeste 33 Sudoeste 0 -- -- 19
2019-08-16 18:00:00 34.4 17 Sudoeste 29 Sudoeste 0 -- -- 19
2019-08-16 17:00:00 33.4 14 Oeste 31 Oeste 0 -- -- 22
2019-08-16 16:00:00 32.4 15 Oeste 31 Sudoeste 0 -- -- 28
2019-08-16 15:00:00 31.3 18 Sudoeste 30 Sudoeste 0 -- -- 33
2019-08-16 14:00:00 30 12 Sudoeste 24 Sudoeste 0 -- -- 38
2019-08-16 13:00:00 27.7 8 Oeste 15 Sudoeste 0 -- -- 40
2019-08-16 12:00:00 24.8 6 Oeste 12 Oeste 0 -- -- 45
2019-08-16 11:00:00 22.9 4 Sudoeste 10 Nordeste 0 -- -- 51
2019-08-16 10:00:00 20 7 Nordeste 12 Nordeste 0 -- -- 60
2019-08-16 09:00:00 17.5 8 Norte 12 Noroeste 0 -- -- 67
2019-08-16 08:00:00 15 9 Norte 10 Norte 0 -- -- 73
2019-08-16 07:00:00 15 8 Norte 13 Norte 0 -- -- 74
2019-08-16 06:00:00 15.5 9 Norte 15 Nordeste 0 -- -- 71
2019-08-16 05:00:00 16 12 Nordeste 17 Norte 0 -- -- 70
2019-08-16 04:00:00 16.7 7 Nordeste 15 Norte 0 -- -- 69
2019-08-16 03:00:00 17.5 13 Nordeste 20 Nordeste 0 -- -- 67
2019-08-16 02:00:00 19.4 17 Nordeste 23 Nordeste 0 -- -- 59
2019-08-16 01:00:00 22 18 Este 26 Nordeste 0 -- -- 50
2019-08-16 00:00:00 24.2 6 Sudeste 23 Norte 0 -- -- 43
2019-08-15 23:00:00 22.9 10 Nordeste 12 Norte 0 -- -- 44
2019-08-15 22:00:00 25.5 7 Norte 9 Norte 0 -- -- 38
2019-08-15 21:00:00 31.7 0 Calma 15 Oeste 0 -- -- 27
2019-08-15 20:00:00 32.4 10 Oeste 22 Oeste 0 -- -- 28
2019-08-15 19:00:00 33.6 7 Oeste 22 Oeste 0 -- -- 26
2019-08-15 18:00:00 32.9 7 Noroeste 25 Oeste 0 -- -- 27
2019-08-15 17:00:00 33 7 Sudeste 21 Sudoeste 0 -- -- 29
2019-08-15 16:00:00 31.2 12 Noroeste 23 Noroeste 0 -- -- 32
2019-08-15 15:00:00 30.3 9 Norte 31 Oeste 0 -- -- 34
2019-08-15 14:00:00 29.3 9 Este 18 Este 0 -- -- 36
2019-08-15 13:00:00 27.2 5 Sudeste 18 Norte 0 -- -- 43
2019-08-15 12:00:00 25 11 Nordeste 19 Nordeste 0 -- -- 47
2019-08-15 11:00:00 23.2 11 Este 21 Este 0 -- -- 58
2019-08-15 10:00:00 20.9 10 Nordeste 15 Nordeste 0 -- -- 67
2019-08-15 09:00:00 17.7 10 Nordeste 16 Nordeste 0 -- -- 77
2019-08-15 08:00:00 15.4 8 Nordeste 15 Nordeste 0 -- -- 83
2019-08-15 07:00:00 14.8 4 Nordeste 13 Norte 0 -- -- 80
2019-08-15 06:00:00 15.2 7 Nordeste 16 Norte 0 -- -- 78
2019-08-15 05:00:00 16.7 13 Nordeste 17 Nordeste 0 -- -- 73
2019-08-15 04:00:00 17.9 6 Nordeste 26 Norte 0 -- -- 68
2019-08-15 03:00:00 20.2 14 Norte 28 Norte 0 -- -- 61
2019-08-15 02:00:00 21.7 21 Norte 32 Noroeste 0 -- -- 58
2019-08-15 01:00:00 22.1 21 Noroeste 32 Norte 0 -- -- 57
2019-08-15 00:00:00 23.4 22 Noroeste 34 Noroeste 0 -- -- 55
2019-08-14 23:00:00 24.9 14 Noroeste 33 Norte 0 -- -- 45
2019-08-14 22:00:00 26.2 4 Noroeste 10 Oeste 0 -- -- 39
2019-08-14 21:00:00 29.2 4 Sudoeste 17 Sudoeste 0 -- -- 33
2019-08-14 20:00:00 31.9 7 Norte 16 Noroeste 0 -- -- 28
2019-08-14 19:00:00 32.2 8 Sudoeste 21 Noroeste 0 -- -- 27
2019-08-14 18:00:00 32.5 8 Oeste 22 Oeste 0 -- -- 27
2019-08-14 17:00:00 31.5 9 Oeste 26 Oeste 0 -- -- 27
2019-08-14 16:00:00 30.4 14 Oeste 23 Sudoeste 0 -- -- 28
2019-08-14 15:00:00 29.5 12 Oeste 27 Oeste 0 -- -- 28
2019-08-14 14:00:00 28.3 5 Sudoeste 20 Oeste 0 -- -- 28
2019-08-14 13:00:00 26.2 9 Sudoeste 17 Sudoeste 0 -- -- 30
2019-08-14 12:00:00 23.6 6 Sur 12 Sudoeste 0 -- -- 33
2019-08-14 11:00:00 20.7 4 Oeste 9 Sudeste 0 -- -- 38
2019-08-14 10:00:00 18.3 3 Sur 8 Noroeste 0 -- -- 42
2019-08-14 09:00:00 15.8 4 Oeste 8 Oeste 0 -- -- 43
2019-08-14 08:00:00 11.5 8 Oeste 9 Oeste 0 -- -- 56
2019-08-14 07:00:00 10.7 2 Norte 14 Norte 0 -- -- 56
2019-08-14 06:00:00 10.8 13 Norte 17 Norte 0 -- -- 57
2019-08-14 05:00:00 11.6 6 Norte 13 Nordeste 0 -- -- 55
2019-08-14 04:00:00 15.4 10 Nordeste 17 Nordeste 0 -- -- 42
2019-08-14 03:00:00 14.1 6 Norte 10 Noroeste 0 -- -- 44
2019-08-14 02:00:00 14.5 7 Norte 8 Nordeste 0 -- -- 43
2019-08-14 01:00:00 15.5 4 Nordeste 10 Norte 0 -- -- 42
2019-08-14 00:00:00 15.5 9 Norte 12 Norte 0 -- -- 43
2019-08-13 23:00:00 17.6 6 Norte 10 Nordeste 0 -- -- 39
2019-08-13 22:00:00 20.9 5 Nordeste 9 Norte 0 -- -- 31
2019-08-13 21:00:00 25.3 6 Norte 15 Norte 0 -- -- 24
2019-08-13 20:00:00 26.9 8 Norte 18 Norte 0 -- -- 23
2019-08-13 19:00:00 27.9 11 Norte 27 Norte 0 -- -- 23
2019-08-13 18:00:00 27.9 11 Oeste 18 Oeste 0 -- -- 22
2019-08-13 17:00:00 27.5 12 Noroeste 23 Sudoeste 0 -- -- 24
2019-08-13 16:00:00 26.9 8 Oeste 18 Oeste 0 -- -- 25
2019-08-13 15:00:00 25.3 9 Este 26 Oeste 0 -- -- 28
2019-08-13 14:00:00 24.2 8 Este 16 Norte 0 -- -- 31
2019-08-13 13:00:00 22.1 8 Nordeste 19 Nordeste 0 -- -- 36
2019-08-13 12:00:00 20.3 8 Norte 15 Norte 0 -- -- 41
2019-08-13 11:00:00 18.7 5 Nordeste 18 Nordeste 0 -- -- 45
2019-08-13 10:00:00 16 15 Nordeste 21 Nordeste 0 -- -- 53
2019-08-13 09:00:00 12.8 11 Nordeste 18 Nordeste 0 -- -- 67
2019-08-13 08:00:00 8.9 8 Nordeste 11 Nordeste 0 -- -- 81
2019-08-13 07:00:00 9 5 Nordeste 12 Norte 0 -- -- 80
2019-08-13 06:00:00 10.7 8 Nordeste 10 Norte 0 -- -- 75
2019-08-13 05:00:00 11.1 6 Nordeste 11 Nordeste 0 -- -- 75
2019-08-13 04:00:00 11.7 8 Nordeste 29 Nordeste 0 -- -- 72
2019-08-13 03:00:00 12.9 23 Nordeste 32 Nordeste 0 -- -- 67
2019-08-13 02:00:00 13.3 16 Nordeste 32 Nordeste 0 -- -- 65
2019-08-13 01:00:00 14.9 25 Nordeste 41 Nordeste 0 -- -- 60
2019-08-13 00:00:00 16.5 24 Nordeste 33 Nordeste 0 -- -- 53
2019-08-12 23:00:00 16.4 14 Nordeste 25 Nordeste 0 -- -- 47
2019-08-12 22:00:00 18.6 13 Nordeste 26 Nordeste 0 -- -- 39
2019-08-12 21:00:00 21.7 12 Nordeste 19 Nordeste 0 -- -- 31
2019-08-12 20:00:00 21.8 13 Nordeste 23 Nordeste 0 -- -- 31
2019-08-12 19:00:00 22.9 19 Nordeste 30 Nordeste 0 -- -- 29
2019-08-12 18:00:00 24.2 18 Nordeste 31 Nordeste 0 -- -- 29
2019-08-12 17:00:00 23.5 10 Norte 26 Norte 0 -- -- 25
2019-08-12 16:00:00 23.7 11 Nordeste 27 Nordeste 0 -- -- 27
2019-08-12 15:00:00 22.4 14 Nordeste 23 Nordeste 0 -- -- 29
2019-08-12 14:00:00 21.7 11 Nordeste 22 Norte 0 -- -- 33
2019-08-12 13:00:00 19.8 8 Nordeste 23 Norte 0 -- -- 39
2019-08-12 12:00:00 17.7 10 Norte 24 Norte 0 -- -- 45
2019-08-12 11:00:00 16.2 14 Nordeste 26 Norte 0 -- -- 52
2019-08-12 10:00:00 14.9 16 Norte 26 Norte 0 -- -- 56
2019-08-12 09:00:00 13 11 Norte 20 Norte 0 -- -- 65
2019-08-12 08:00:00 10.2 10 Norte 18 Norte 0 -- -- 77
2019-08-12 07:00:00 8.9 7 Norte 9 Norte 0 -- -- 80
2019-08-12 06:00:00 8.8 5 Nordeste 8 Norte 0 -- -- 81
2019-08-12 05:00:00 9.6 6 Norte 12 Nordeste 0 -- -- 78
2019-08-12 04:00:00 10.4 8 Norte 20 Noroeste 0 -- -- 74
2019-08-12 03:00:00 11.1 6 Norte 21 Norte 0 -- -- 71
2019-08-12 02:00:00 11.9 11 Noroeste 18 Noroeste 0 -- -- 69
2019-08-12 01:00:00 13 14 Noroeste 20 Noroeste 0 -- -- 65
2019-08-12 00:00:00 14.2 16 Noroeste 28 Noroeste 0 -- -- 60
2019-08-11 23:00:00 15.3 17 Noroeste 32 Noroeste 0 -- -- 54
2019-08-11 22:00:00 17.2 21 Noroeste 43 Noroeste 0 -- -- 47
2019-08-11 21:00:00 20.8 26 Oeste 40 Oeste 0 -- -- 36
2019-08-11 20:00:00 23.3 23 Oeste 39 Oeste 0 -- -- 29
2019-08-11 19:00:00 25 19 Oeste 37 Oeste 0 -- -- 24
2019-08-11 18:00:00 24.5 26 Sudoeste 37 Oeste 0 -- -- 28
2019-08-11 17:00:00 24.3 24 Oeste 39 Oeste 0 -- -- 29
2019-08-11 16:00:00 23.6 17 Sudoeste 35 Sudoeste 0 -- -- 33
2019-08-11 15:00:00 22.2 16 Oeste 31 Sudoeste 0 -- -- 40
2019-08-11 14:00:00 21 19 Oeste 28 Oeste 0 -- -- 50
2019-08-11 13:00:00 19.4 14 Oeste 24 Oeste 0 -- -- 60
2019-08-11 12:00:00 17.3 15 Oeste 23 Oeste 0 -- -- 76
2019-08-11 11:00:00 17.2 12 Oeste 18 Oeste 0 -- -- 79
2019-08-11 10:00:00 15 8 Oeste 12 Oeste 0 -- -- 88
2019-08-11 09:00:00 14.2 7 Oeste 10 Oeste 0 -- -- 91
2019-08-11 08:00:00 13.4 5 Este 11 Este 0 -- -- 92
2019-08-11 07:00:00 12.8 4 Este 17 Norte 0 -- -- 93
2019-08-11 06:00:00 13.5 13 Nordeste 21 Nordeste 0 -- -- 91
2019-08-11 05:00:00 14 16 Nordeste 23 Nordeste 1 -- -- 91
2019-08-11 04:00:00 15.4 9 Norte 18 Noroeste 0 -- -- 82
2019-08-11 03:00:00 16.7 3 Este 15 Norte 0 -- -- 76
2019-08-11 02:00:00 18.9 14 Norte 27 Norte 0 -- -- 55
2019-08-11 01:00:00 20 21 Norte 30 Norte 0 -- -- 46
2019-08-11 00:00:00 20.7 14 Norte 22 Norte 0 -- -- 40
2019-08-10 23:00:00 21.6 13 Noroeste 27 Noroeste 0 -- -- 38
2019-08-10 22:00:00 22.7 18 Oeste 28 Oeste 0 -- -- 34
2019-08-10 21:00:00 24.2 19 Oeste 28 Oeste 0 -- -- 31
2019-08-10 20:00:00 26.2 19 Oeste 28 Oeste 0 -- -- 30
2019-08-10 19:00:00 27.7 17 Oeste 27 Oeste 0 -- -- 28
2019-08-10 18:00:00 27.9 13 Sudoeste 39 Sur 0 -- -- 30
2019-08-10 17:00:00 27.4 7 Sur 22 Sudoeste 0 -- -- 30
2019-08-10 16:00:00 26.6 7 Noroeste 27 Sudoeste 0 -- -- 33
2019-08-10 15:00:00 26.3 8 Sudeste 19 Oeste 0 -- -- 35
2019-08-10 14:00:00 24.1 11 Sudoeste 21 Sur 0 -- -- 38
2019-08-10 13:00:00 23.3 5 Oeste 18 Sur 0 -- -- 35
2019-08-10 12:00:00 21.4 9 Sur 16 Sudoeste 0 -- -- 42
2019-08-10 11:00:00 19.2 9 Oeste 17 Sudoeste 0 -- -- 56
2019-08-10 10:00:00 17.6 10 Sudoeste 18 Sudoeste 0 -- -- 65
2019-08-10 09:00:00 16 8 Sudoeste 14 Sudoeste 0 -- -- 73
2019-08-10 08:00:00 14.3 6 Sudoeste 11 Sudoeste 0 -- -- 78
2019-08-10 07:00:00 13.7 3 Sudeste 7 Sudeste 0 -- -- 78
2019-08-10 06:00:00 14 5 Sudoeste 9 Sudoeste 0 -- -- 77
2019-08-10 05:00:00 13.2 4 Sur 12 Sudoeste 0 -- -- 79
2019-08-10 04:00:00 13.4 4 Sur 9 Sur 0 -- -- 76
2019-08-10 03:00:00 13.6 7 Oeste 12 Oeste 0 -- -- 75
2019-08-10 02:00:00 14.3 10 Oeste 13 Oeste 0 -- -- 71
2019-08-10 01:00:00 15.1 6 Oeste 13 Oeste 0 -- -- 68
2019-08-10 00:00:00 16.7 9 Oeste 15 Oeste 0 -- -- 63
2019-08-09 23:00:00 18.9 17 Oeste 24 Oeste 0 -- -- 57
2019-08-09 22:00:00 19.5 8 Oeste 24 Sudoeste 0 -- -- 71
2019-08-09 21:00:00 21.2 20 Sudoeste 31 Sur 0 -- -- 65
2019-08-09 20:00:00 22.9 22 Sur 36 Sur 0 -- -- 61
2019-08-09 19:00:00 27.2 15 Sudoeste 43 Oeste 0 -- -- 35
2019-08-09 18:00:00 25.2 33 Sudoeste 48 Oeste 0 -- -- 34
2019-08-09 17:00:00 26.1 31 Sudoeste 44 Oeste 0 -- -- 35
2019-08-09 16:00:00 26.6 30 Oeste 51 Oeste 0 -- -- 38
2019-08-09 15:00:00 25.3 30 Sudoeste 51 Sudoeste 0 -- -- 49
2019-08-09 14:00:00 23.1 30 Oeste 43 Oeste 0 -- -- 59
2019-08-09 13:00:00 21 24 Sudoeste 36 Sudoeste 0 -- -- 71
2019-08-09 12:00:00 18.5 22 Oeste 41 Oeste 0.2 -- -- 88
2019-08-09 11:00:00 17.9 20 Oeste 33 Oeste 0 -- -- 91
2019-08-09 10:00:00 17.7 19 Oeste 48 Sudoeste 0.4 -- -- 93
2019-08-09 09:00:00 21.4 23 Sur 33 Sur 0 -- -- 74
2019-08-09 08:00:00 20.2 18 Sur 29 Sur 0 -- -- 76
2019-08-09 07:00:00 19.6 11 Sur 19 Sudoeste 0 -- -- 74
2019-08-09 06:00:00 19.8 13 Sur 21 Sudoeste 0 -- -- 72
2019-08-09 05:00:00 20.1 16 Sur 22 Sur 0 -- -- 72
2019-08-09 04:00:00 20.6 13 Sudoeste 26 Sudoeste 0 -- -- 71
2019-08-09 03:00:00 21.4 16 Sudoeste 30 Sudoeste 0 -- -- 67
2019-08-09 02:00:00 22.1 20 Sudoeste 28 Sudoeste 0 -- -- 62
2019-08-09 01:00:00 22.4 14 Sudoeste 25 Sudoeste 0 -- -- 60
2019-08-09 00:00:00 23.4 16 Sudoeste 30 Sudoeste 0 -- -- 56
2019-08-08 23:00:00 24.7 23 Sudoeste 37 Sudoeste 0 -- -- 52
2019-08-08 22:00:00 26.2 32 Sudoeste 46 Oeste 0 -- -- 47
2019-08-08 21:00:00 27.8 32 Sudoeste 50 Sudoeste 0 -- -- 43
2019-08-08 20:00:00 30 38 Sudoeste 53 Sudoeste 0 -- -- 38
2019-08-08 19:00:00 31.4 33 Sudoeste 58 Sudoeste 0 -- -- 36
2019-08-08 18:00:00 31.6 40 Sudoeste 55 Oeste 0 -- -- 36
2019-08-08 17:00:00 31.7 29 Sudoeste 48 Sudoeste 0 -- -- 35
2019-08-08 16:00:00 31 31 Sudoeste 43 Sudoeste 0 -- -- 40
2019-08-08 15:00:00 28.7 29 Sudoeste 39 Sudoeste 0 -- -- 47
2019-08-08 14:00:00 28.6 15 Sudoeste 26 Sudoeste 0 -- -- 49
2019-08-08 13:00:00 27.1 11 Oeste 21 Sur 0 -- -- 52
2019-08-08 12:00:00 26.2 13 Sur 25 Sudoeste 0 -- -- 53
2019-08-08 11:00:00 24.9 14 Sur 26 Sudoeste 0 -- -- 57
2019-08-08 10:00:00 22.6 8 Sur 23 Sudoeste 0 -- -- 61
2019-08-08 09:00:00 21.1 5 Sudeste 10 Sudeste 0 -- -- 65
2019-08-08 08:00:00 19.4 7 Oeste 34 Sudoeste 0 -- -- 73
2019-08-08 07:00:00 19.9 7 Sur 15 Sur 0 -- -- 69
2019-08-08 06:00:00 19.7 8 Sudoeste 19 Sudoeste 0 -- -- 68
2019-08-08 05:00:00 20.1 10 Sudoeste 16 Sudoeste 0 -- -- 68
2019-08-08 04:00:00 19.6 6 Sur 8 Sur 0 -- -- 76
2019-08-08 03:00:00 19.2 4 Sur 5 Sudeste 0 -- -- 78
2019-08-08 02:00:00 19 3 Sudeste 8 Sudeste 0 -- -- 78
2019-08-08 01:00:00 18.2 5 Este 6 Este 0 -- -- 81
2019-08-08 00:00:00 19 4 Sudeste 5 Norte 0 -- -- 79
2019-08-07 23:00:00 19.4 4 Norte 10 Norte 0 -- -- 78
2019-08-07 22:00:00 19.4 8 Norte 19 Noroeste 0 -- -- 79
2019-08-07 21:00:00 20.4 14 Noroeste 24 Noroeste 0 -- -- 72
2019-08-07 20:00:00 22 19 Noroeste 33 Oeste 0 -- -- 64
2019-08-07 19:00:00 23.1 23 Oeste 37 Oeste 0 -- -- 53
2019-08-07 18:00:00 25.5 22 Oeste 39 Oeste 0 -- -- 43
2019-08-07 17:00:00 27.4 26 Oeste 36 Oeste 0 -- -- 36
2019-08-07 16:00:00 28.4 10 Sudoeste 27 Oeste 0 -- -- 40
2019-08-07 15:00:00 27.4 10 Sudoeste 20 Sudoeste 0 -- -- 41
2019-08-07 14:00:00 26.8 9 Sudoeste 21 Sudoeste 0 -- -- 40
2019-08-07 13:00:00 26.6 11 Sudoeste 22 Sudoeste 0 -- -- 37
2019-08-07 12:00:00 24.5 6 Sudoeste 13 Sudoeste 0 -- -- 48
2019-08-07 11:00:00 23.1 6 Sudoeste 12 Oeste 0 -- -- 55
2019-08-07 10:00:00 21.2 6 Oeste 9 Oeste 0 -- -- 62
2019-08-07 09:00:00 19.5 4 Oeste 7 Oeste 0 -- -- 63
2019-08-07 08:00:00 16.5 4 Oeste 8 Noroeste 0 -- -- 71
2019-08-07 07:00:00 15.7 3 Noroeste 7 Oeste 0 -- -- 77
2019-08-07 06:00:00 17.6 6 Norte 12 Norte 0 -- -- 72
2019-08-07 05:00:00 18 8 Norte 11 Noroeste 0 -- -- 71
2019-08-07 04:00:00 19 6 Noroeste 9 Oeste 0 -- -- 67
2019-08-07 03:00:00 20.6 4 Noroeste 9 Noroeste 0 -- -- 63
2019-08-07 02:00:00 21.6 4 Norte 19 Norte 0 -- -- 57
2019-08-07 01:00:00 22.3 13 Noroeste 19 Nordeste 0 -- -- 56
2019-08-07 00:00:00 23 10 Nordeste 18 Nordeste 0 -- -- 54
2019-08-06 23:00:00 24 8 Norte 21 Noroeste 0 -- -- 51
2019-08-06 22:00:00 25.2 18 Noroeste 40 Noroeste 0 -- -- 43
2019-08-06 21:00:00 26.6 28 Noroeste 40 Oeste 0 -- -- 38
2019-08-06 20:00:00 28.8 26 Oeste 36 Noroeste 0 -- -- 34
2019-08-06 19:00:00 30.6 17 Oeste 33 Oeste 0 -- -- 30
2019-08-06 18:00:00 31.6 19 Oeste 32 Sudoeste 0 -- -- 27
2019-08-06 17:00:00 32.5 15 Oeste 31 Sudoeste 0 -- -- 30
2019-08-06 16:00:00 32.3 12 Sudoeste 28 Sudoeste 0 -- -- 33
2019-08-06 15:00:00 30.6 10 Oeste 26 Oeste 0 -- -- 36
2019-08-06 14:00:00 30.4 11 Oeste 24 Sudoeste 0 -- -- 34
2019-08-06 13:00:00 28.4 8 Sudoeste 16 Sudoeste 0 -- -- 42
2019-08-06 12:00:00 25.5 8 Oeste 15 Oeste 0 -- -- 47
2019-08-06 11:00:00 23.9 13 Oeste 21 Oeste 0 -- -- 52
2019-08-06 10:00:00 21.5 8 Sudoeste 14 Sudoeste 0 -- -- 60
2019-08-06 09:00:00 20.5 3 Sur 5 Nordeste 0 -- -- 63
2019-08-06 08:00:00 16.5 5 Nordeste 8 Norte 0 -- -- 76
2019-08-06 07:00:00 15.7 6 Norte 9 Noroeste 0 -- -- 79
2019-08-06 06:00:00 17 10 Noroeste 18 Noroeste 0 -- -- 75
2019-08-06 05:00:00 17.7 14 Oeste 20 Oeste 0 -- -- 66
2019-08-06 04:00:00 18.9 13 Oeste 17 Oeste 0 -- -- 58
2019-08-06 03:00:00 20.3 7 Sudoeste 12 Sudoeste 0 -- -- 53
2019-08-06 02:00:00 20.8 6 Sur 19 Noroeste 0 -- -- 49
2019-08-06 01:00:00 21.9 13 Noroeste 20 Oeste 0 -- -- 45
2019-08-06 00:00:00 22.9 9 Oeste 17 Noroeste 0 -- -- 41
2019-08-05 23:00:00 24.1 12 Oeste 19 Oeste 0 -- -- 37
2019-08-05 22:00:00 26.6 12 Oeste 22 Oeste 0 -- -- 34
2019-08-05 21:00:00 30.6 15 Oeste 28 Oeste 0 -- -- 29
2019-08-05 20:00:00 33.2 12 Oeste 31 Oeste 0 -- -- 25
2019-08-05 19:00:00 33.5 16 Oeste 35 Oeste 0 -- -- 26
2019-08-05 18:00:00 33.2 17 Oeste 32 Sudoeste 0 -- -- 27
2019-08-05 17:00:00 33.1 14 Oeste 29 Sur 0 -- -- 25
2019-08-05 16:00:00 32.3 8 Oeste 22 Oeste 0 -- -- 30
2019-08-05 15:00:00 31.1 8 Oeste 19 Oeste 0 -- -- 32
2019-08-05 14:00:00 30.4 6 Noroeste 16 Oeste 0 -- -- 35
2019-08-05 13:00:00 28.1 9 Oeste 18 Noroeste 0 -- -- 43
2019-08-05 12:00:00 26.3 6 Noroeste 13 Noroeste 0 -- -- 51
2019-08-05 11:00:00 23.7 5 Noroeste 10 Norte 0 -- -- 59
2019-08-05 10:00:00 21.2 3 Este 9 Nordeste 0 -- -- 68
2019-08-05 09:00:00 18.4 8 Nordeste 12 Nordeste 0 -- -- 76
2019-08-05 08:00:00 15.2 10 Nordeste 13 Norte 0 -- -- 85
2019-08-05 07:00:00 14.6 9 Norte 12 Norte 0 -- -- 87
2019-08-05 06:00:00 15.1 7 Norte 12 Norte 0 -- -- 84
2019-08-05 05:00:00 15.8 9 Nordeste 20 Nordeste 0 -- -- 82
2019-08-05 04:00:00 16.3 10 Nordeste 14 Nordeste 0 -- -- 78
2019-08-05 03:00:00 18.3 6 Nordeste 13 Norte 0 -- -- 65
2019-08-05 02:00:00 19.9 11 Noroeste 17 Norte 0 -- -- 54
2019-08-05 01:00:00 22.5 11 Norte 17 Norte 0 -- -- 48
2019-08-05 00:00:00 23.8 14 Noroeste 17 Noroeste 0 -- -- 38
2019-08-04 23:00:00 24 11 Noroeste 18 Noroeste 0 -- -- 37
2019-08-04 22:00:00 26.5 13 Oeste 24 Oeste 0 -- -- 30
2019-08-04 21:00:00 30.4 18 Oeste 27 Oeste 0 -- -- 26
2019-08-04 20:00:00 32.8 16 Oeste 32 Sudoeste 0 -- -- 23
2019-08-04 19:00:00 33.4 22 Oeste 37 Sudoeste 0 -- -- 25
2019-08-04 18:00:00 33.8 20 Oeste 42 Sudoeste 0 -- -- 27
2019-08-04 17:00:00 33.3 14 Oeste 26 Oeste 0 -- -- 29
2019-08-04 16:00:00 33 7 Norte 28 Sur 0 -- -- 31
2019-08-04 15:00:00 31.5 11 Sudoeste 27 Sudoeste 0 -- -- 33
2019-08-04 14:00:00 30.8 8 Oeste 22 Sudoeste 0 -- -- 35
2019-08-04 13:00:00 29.1 5 Oeste 18 Oeste 0 -- -- 38
2019-08-04 12:00:00 26.7 6 Noroeste 19 Noroeste 0 -- -- 45
2019-08-04 11:00:00 24.5 10 Noroeste 16 Noroeste 0 -- -- 50
2019-08-04 10:00:00 22.2 9 Noroeste 14 Oeste 0 -- -- 53
2019-08-04 09:00:00 19.2 6 Oeste 12 Noroeste 0 -- -- 64
2019-08-04 08:00:00 17.3 5 Norte 9 Nordeste 0 -- -- 68
2019-08-04 07:00:00 16.1 8 Norte 12 Norte 0 -- -- 75
2019-08-04 06:00:00 17.2 9 Noroeste 13 Noroeste 0 -- -- 73
2019-08-04 05:00:00 17.8 4 Norte 8 Norte 0 -- -- 70
2019-08-04 04:00:00 18.8 2 Noroeste 12 Nordeste 0 -- -- 68
2019-08-04 03:00:00 20.1 5 Norte 18 Norte 0 -- -- 63
2019-08-04 02:00:00 21.8 11 Noroeste 22 Noroeste 0 -- -- 50
2019-08-04 01:00:00 23 17 Noroeste 26 Noroeste 0 -- -- 44
2019-08-04 00:00:00 24.1 17 Noroeste 23 Noroeste 0 -- -- 37
2019-08-03 23:00:00 25.7 13 Noroeste 19 Oeste 0 -- -- 33
2019-08-03 22:00:00 28 12 Oeste 26 Oeste 0 -- -- 32
2019-08-03 21:00:00 31.7 13 Oeste 23 Oeste 0 -- -- 26
2019-08-03 20:00:00 34.4 13 Oeste 18 Oeste 0 -- -- 17
2019-08-03 19:00:00 34.6 14 Oeste 33 Sudoeste 0 -- -- 19
2019-08-03 18:00:00 35.3 13 Sudoeste 28 Sudoeste 0 -- -- 21
2019-08-03 17:00:00 35.9 7 Sudoeste 19 Sudoeste 0 -- -- 21
2019-08-03 16:00:00 33.9 11 Oeste 22 Sudoeste 0 -- -- 21
2019-08-03 15:00:00 33.3 5 Sudoeste 17 Sudeste 0 -- -- 27
2019-08-03 14:00:00 32.2 10 Oeste 18 Oeste 0 -- -- 30
2019-08-03 13:00:00 29.7 5 Noroeste 12 Oeste 0 -- -- 37
2019-08-03 12:00:00 27.3 5 Sudeste 11 Sudoeste 0 -- -- 42
2019-08-03 11:00:00 24.7 5 Sudoeste 12 Sur 0 -- -- 48
2019-08-03 10:00:00 22.6 3 Nordeste 16 Nordeste 0 -- -- 54
2019-08-03 09:00:00 18.8 13 Nordeste 19 Norte 0 -- -- 68
2019-08-03 08:00:00 16.5 14 Nordeste 18 Nordeste 0 -- -- 74
2019-08-03 07:00:00 15.8 13 Norte 17 Norte 0 -- -- 76
2019-08-03 06:00:00 16.7 13 Norte 17 Norte 0 -- -- 74
2019-08-03 05:00:00 18.4 9 Norte 20 Norte 0 -- -- 64
2019-08-03 04:00:00 19.7 13 Noroeste 17 Oeste 0 -- -- 59
2019-08-03 03:00:00 20.6 14 Nordeste 22 Nordeste 0 -- -- 59
2019-08-03 02:00:00 20.8 14 Nordeste 29 Nordeste 0 -- -- 58
2019-08-03 01:00:00 20.7 15 Nordeste 23 Nordeste 0 -- -- 48
2019-08-03 00:00:00 22.2 13 Nordeste 16 Norte 0 -- -- 38
2019-08-02 23:00:00 24.1 13 Nordeste 18 Norte 0 -- -- 34
2019-08-02 22:00:00 27.2 14 Noroeste 17 Noroeste 0 -- -- 29
2019-08-02 21:00:00 31.6 8 Oeste 14 Oeste 0 -- -- 24
2019-08-02 20:00:00 34 6 Noroeste 15 Oeste 0 -- -- 20
2019-08-02 19:00:00 34.3 5 Oeste 17 Oeste 0 -- -- 20
2019-08-02 18:00:00 33.7 10 Sudoeste 19 Sudoeste 0 -- -- 22
2019-08-02 17:00:00 33.5 9 Sudoeste 17 Noroeste 0 -- -- 22
2019-08-02 16:00:00 32.6 10 Sudoeste 16 Sudoeste 0 -- -- 25
2019-08-02 15:00:00 31.4 4 Norte 17 Este 0 -- -- 26
2019-08-02 14:00:00 30.4 7 Norte 19 Sudeste 0 -- -- 36
2019-08-02 13:00:00 27.3 6 Norte 14 Norte 0 -- -- 45
2019-08-02 12:00:00 24 6 Nordeste 14 Nordeste 0 -- -- 55
2019-08-02 11:00:00 20.9 7 Nordeste 13 Norte 0 -- -- 64
2019-08-02 10:00:00 18.2 7 Nordeste 14 Nordeste 0 -- -- 72
2019-08-02 09:00:00 16.5 5 Nordeste 9 Norte 0 -- -- 77
2019-08-02 08:00:00 13.9 7 Norte 10 Norte 0 -- -- 86
2019-08-02 07:00:00 12.9 6 Nordeste 7 Norte 0 -- -- 89
2019-08-02 06:00:00 13.6 2 Norte 8 Norte 0 -- -- 89
2019-08-02 05:00:00 14.1 5 Norte 7 Norte 0 -- -- 86
2019-08-02 04:00:00 15.1 4 Nordeste 10 Nordeste 0 -- -- 84
2019-08-02 03:00:00 15.9 8 Nordeste 17 Nordeste 0 -- -- 83
2019-08-02 02:00:00 17.1 5 Nordeste 32 Nordeste 0 -- -- 79
2019-08-02 01:00:00 18.9 21 Nordeste 34 Nordeste 0 -- -- 74
2019-08-02 00:00:00 21.2 25 Nordeste 33 Nordeste 0 -- -- 65
2019-08-01 23:00:00 22 12 Noroeste 17 Oeste 0 -- -- 32
2019-08-01 22:00:00 25.6 14 Oeste 18 Noroeste 0 -- -- 27
2019-08-01 21:00:00 29.4 12 Oeste 20 Noroeste 0 -- -- 26
2019-08-01 20:00:00 31.2 13 Oeste 25 Oeste 0 -- -- 23
2019-08-01 19:00:00 30.7 15 Oeste 25 Oeste 0 -- -- 25
2019-08-01 18:00:00 31.9 16 Sudoeste 32 Oeste 0 -- -- 24
2019-08-01 17:00:00 31.4 12 Sudoeste 33 Sudoeste 0 -- -- 22
2019-08-01 16:00:00 30.7 19 Sudoeste 32 Sudoeste 0 -- -- 26
2019-08-01 15:00:00 29.7 15 Oeste 26 Oeste 0 -- -- 30
2019-08-01 14:00:00 28.2 9 Noroeste 20 Oeste 0 -- -- 37
2019-08-01 13:00:00 26 8 Noroeste 18 Noroeste 0 -- -- 44
2019-08-01 12:00:00 23.8 9 Oeste 19 Noroeste 0 -- -- 53
2019-08-01 11:00:00 20.7 6 Oeste 12 Oeste 0 -- -- 61
2019-08-01 10:00:00 18.9 3 Nordeste 15 Norte 0 -- -- 68
2019-08-01 09:00:00 16.3 12 Norte 16 Nordeste 0 -- -- 76
2019-08-01 08:00:00 13.8 10 Norte 18 Norte 0 -- -- 84
2019-08-01 07:00:00 12.8 12 Norte 19 Norte 0 -- -- 85
2019-08-01 06:00:00 14.1 13 Nordeste 22 Norte 0 -- -- 81
2019-08-01 05:00:00 14.7 17 Norte 23 Norte 0 -- -- 79
2019-08-01 04:00:00 15.1 11 Noroeste 13 Noroeste 0 -- -- 75
2019-08-01 03:00:00 16.5 9 Norte 10 Norte 0 -- -- 70
2019-08-01 02:00:00 17.9 5 Norte 15 Nordeste 0 -- -- 65
2019-08-01 01:00:00 19.4 10 Este 17 Nordeste 0 -- -- 57
2019-08-01 00:00:00 19.9 8 Nordeste 22 Nordeste 0 -- -- 54
2019-07-31 23:00:00 21.9 12 Norte 18 Norte 0 -- -- 47
2019-07-31 22:00:00 23 11 Nordeste 21 Norte 0 -- -- 40
2019-07-31 21:00:00 26.3 15 Norte 23 Norte 0 -- -- 32
2019-07-31 20:00:00 27.7 15 Norte 27 Norte 0 -- -- 31
2019-07-31 19:00:00 28.7 15 Norte 26 Norte 0 -- -- 30
2019-07-31 18:00:00 29.2 8 Nordeste 22 Noroeste 0 -- -- 30
2019-07-31 17:00:00 29.7 4 Oeste 16 Este 0 -- -- 29
2019-07-31 16:00:00 29 10 Sudeste 24 Norte 0 -- -- 33
2019-07-31 15:00:00 27.8 12 Nordeste 26 Nordeste 0 -- -- 34
2019-07-31 14:00:00 25.4 16 Nordeste 28 Norte 0 -- -- 38
2019-07-31 13:00:00 23.5 17 Nordeste 27 Nordeste 0 -- -- 42
2019-07-31 12:00:00 20.6 16 Nordeste 28 Nordeste 0 -- -- 48
2019-07-31 11:00:00 18.5 17 Nordeste 25 Norte 0 -- -- 54
2019-07-31 10:00:00 16.5 13 Nordeste 21 Nordeste 0 -- -- 60
2019-07-31 09:00:00 14.2 7 Nordeste 12 Nordeste 0 -- -- 69
2019-07-31 08:00:00 11.7 10 Nordeste 15 Nordeste 0 -- -- 79
2019-07-31 07:00:00 11.1 13 Nordeste 18 Nordeste 0 -- -- 80
2019-07-31 06:00:00 12.1 9 Nordeste 21 Nordeste 0 -- -- 77
2019-07-31 05:00:00 12.3 3 Noroeste 16 Nordeste 0 -- -- 75
2019-07-31 04:00:00 12.8 13 Nordeste 32 Nordeste 0 -- -- 74
2019-07-31 03:00:00 13.6 21 Nordeste 31 Nordeste 0 -- -- 72
2019-07-31 02:00:00 14.8 23 Nordeste 32 Nordeste 0 -- -- 65
2019-07-31 01:00:00 16 19 Nordeste 34 Nordeste 0 -- -- 58
2019-07-31 00:00:00 16.5 18 Nordeste 29 Nordeste 0 -- -- 55
2019-07-30 23:00:00 17.2 13 Nordeste 15 Nordeste 0 -- -- 43
2019-07-30 22:00:00 19.8 9 Nordeste 19 Norte 0 -- -- 36
2019-07-30 21:00:00 24.5 12 Norte 22 Nordeste 0 -- -- 27
2019-07-30 20:00:00 26.2 11 Nordeste 26 Nordeste 0 -- -- 25
2019-07-30 19:00:00 26.8 13 Norte 27 Nordeste 0 -- -- 24
2019-07-30 18:00:00 27.8 10 Este 30 Este 0 -- -- 26
2019-07-30 17:00:00 26.1 11 Nordeste 26 Nordeste 0 -- -- 29
2019-07-30 16:00:00 25.7 13 Nordeste 26 Nordeste 0 -- -- 30
2019-07-30 15:00:00 23.8 12 Este 29 Nordeste 0 -- -- 32
2019-07-30 14:00:00 22.6 9 Nordeste 23 Nordeste 0 -- -- 34
2019-07-30 13:00:00 20.8 6 Norte 17 Nordeste 0 -- -- 39
2019-07-30 12:00:00 19.7 6 Nordeste 21 Nordeste 0 -- -- 46
2019-07-30 11:00:00 17.6 10 Nordeste 27 Norte 0 -- -- 52
2019-07-30 10:00:00 15.1 22 Norte 31 Norte 0 -- -- 57
2019-07-30 09:00:00 13.6 10 Noroeste 24 Noroeste 0 -- -- 63
2019-07-30 08:00:00 10.2 3 Oeste 7 Oeste 0 -- -- 71
2019-07-30 07:00:00 8.6 5 Oeste 9 Oeste 0 -- -- 76
2019-07-30 06:00:00 9.6 6 Oeste 14 Oeste 0 -- -- 75
2019-07-30 05:00:00 9.3 9 Oeste 15 Oeste 0 -- -- 76
2019-07-30 04:00:00 11.6 10 Oeste 18 Oeste 0 -- -- 72
2019-07-30 03:00:00 12 9 Noroeste 13 Noroeste 0 -- -- 71
2019-07-30 02:00:00 12.4 5 Noroeste 11 Noroeste 0 -- -- 62
2019-07-30 01:00:00 14.1 7 Norte 17 Noroeste 0 -- -- 54
2019-07-30 00:00:00 15.7 8 Noroeste 24 Oeste 0 -- -- 50
2019-07-29 23:00:00 17.9 17 Oeste 26 Oeste 0 -- -- 44
2019-07-29 22:00:00 19.6 20 Oeste 37 Oeste 0 -- -- 37
2019-07-29 21:00:00 22.7 24 Oeste 39 Oeste 0 -- -- 33
2019-07-29 20:00:00 24.9 24 Oeste 40 Oeste 0 -- -- 31
2019-07-29 19:00:00 25.9 24 Oeste 41 Oeste 0 -- -- 29
2019-07-29 18:00:00 26.6 26 Oeste 47 Sudoeste 0 -- -- 28
2019-07-29 17:00:00 26.7 30 Oeste 48 Noroeste 0 -- -- 28
2019-07-29 16:00:00 26.4 29 Oeste 44 Sudoeste 0 -- -- 29
2019-07-29 15:00:00 25.4 28 Sudoeste 41 Oeste 0 -- -- 34
2019-07-29 14:00:00 24.2 22 Oeste 39 Oeste 0 -- -- 40
2019-07-29 13:00:00 22.6 26 Oeste 42 Sudoeste 0 -- -- 48
2019-07-29 12:00:00 21.8 23 Oeste 37 Sudoeste 0 -- -- 52
2019-07-29 11:00:00 20.1 27 Oeste 37 Sudoeste 0 -- -- 60
2019-07-29 10:00:00 19.1 23 Sudoeste 33 Sudoeste 0 -- -- 58
2019-07-29 09:00:00 16.9 18 Sudoeste 26 Sudoeste 0 -- -- 52
2019-07-29 08:00:00 14.7 9 Sudoeste 11 Sudoeste 0 -- -- 61
2019-07-29 07:00:00 13.2 9 Sudoeste 13 Sudoeste 0 -- -- 65
2019-07-29 06:00:00 13.8 11 Sudoeste 25 Sudoeste 0 -- -- 57
2019-07-29 05:00:00 15.2 12 Oeste 20 Oeste 0 -- -- 51
2019-07-29 04:00:00 15.4 13 Oeste 19 Oeste 0 -- -- 52
2019-07-29 03:00:00 17.4 11 Oeste 15 Oeste 0 -- -- 46
2019-07-29 02:00:00 15.8 2 Sudoeste 7 Nordeste 0 -- -- 49
2019-07-29 01:00:00 16.3 8 Nordeste 9 Norte 0 -- -- 50
2019-07-29 00:00:00 19.3 3 Oeste 7 Sur 0 -- -- 38
2019-07-28 23:00:00 22.1 6 Sudoeste 13 Oeste 0 -- -- 34
2019-07-28 22:00:00 23.7 5 Sur 15 Sudoeste 0 -- -- 31
2019-07-28 21:00:00 27.3 13 Sudoeste 22 Sudoeste 0 -- -- 26
2019-07-28 20:00:00 28.7 12 Oeste 26 Sudoeste 0 -- -- 25
2019-07-28 19:00:00 28.9 13 Oeste 25 Oeste 0 -- -- 26
2019-07-28 18:00:00 28.1 12 Oeste 24 Oeste 0 -- -- 22
2019-07-28 17:00:00 27.5 7 Noroeste 25 Oeste 0 -- -- 27
2019-07-28 16:00:00 27 8 Sur 17 Oeste 0 -- -- 30
2019-07-28 15:00:00 25.4 5 Sudoeste 20 Noroeste 0 -- -- 34
2019-07-28 14:00:00 23.9 5 Norte 21 Sudoeste 0 -- -- 39
2019-07-28 13:00:00 22.3 7 Este 22 Este 0 -- -- 43
2019-07-28 12:00:00 20.4 10 Este 23 Este 0 -- -- 48
2019-07-28 11:00:00 19.4 14 Este 24 Este 0 -- -- 54
2019-07-28 10:00:00 16.8 14 Este 21 Este 0 -- -- 67
2019-07-28 09:00:00 14.3 6 Nordeste 10 Nordeste 0 -- -- 75
2019-07-28 08:00:00 10.7 8 Nordeste 13 Nordeste 0 -- -- 87
2019-07-28 07:00:00 9 8 Nordeste 12 Nordeste 0 -- -- 92
2019-07-28 06:00:00 9.5 3 Nordeste 8 Nordeste 0 -- -- 90
2019-07-28 05:00:00 10.1 6 Nordeste 12 Norte 0 -- -- 88
2019-07-28 04:00:00 10.3 9 Nordeste 14 Nordeste 0 -- -- 89
2019-07-28 03:00:00 11 9 Nordeste 10 Norte 0 -- -- 86
2019-07-28 02:00:00 11.7 9 Nordeste 16 Nordeste 0 -- -- 85
2019-07-28 01:00:00 13.9 13 Nordeste 18 Este 0 -- -- 77
2019-07-28 00:00:00 15 15 Nordeste 30 Este 0 -- -- 73
2019-07-27 23:00:00 16.2 21 Nordeste 35 Nordeste 0 -- -- 70
2019-07-26 12:00:00 20.9 10 Oeste 26 Sudoeste 0 -- -- 51
2019-07-26 11:00:00 18.1 10 Oeste 21 Oeste 0 -- -- 64
2019-07-26 10:00:00 15.9 14 Oeste 22 Oeste 0 -- -- 71
2019-07-26 09:00:00 15.7 17 Oeste 26 Oeste 0 -- -- 69
2019-07-26 08:00:00 16.2 15 Oeste 22 Oeste 0 -- -- 68
2019-07-26 07:00:00 15.6 11 Oeste 19 Oeste 0 -- -- 76
2019-07-26 06:00:00 16.5 17 Oeste 30 Oeste 0 -- -- 75
2019-07-26 05:00:00 17.3 12 Oeste 21 Oeste 0.2 -- -- 86
2019-07-26 04:00:00 17.7 12 Oeste 26 Oeste 0 -- -- 83
2019-07-26 03:00:00 19.4 17 Oeste 32 Oeste 0 -- -- 71
2019-07-26 02:00:00 20.3 17 Oeste 33 Oeste 0 -- -- 70
2019-07-26 01:00:00 21.3 19 Oeste 30 Oeste 0 -- -- 67
2019-07-26 00:00:00 21.4 19 Oeste 36 Oeste 0 -- -- 69